sensor_id;sensor_type;location;lat;lon;timestamp;pressure;altitude;pressure_sealevel;temperature;humidity
14253;BME280;7210;51.502;10.722;2023-04-22T00:01:42;99282.69;;;9.10;84.67
14253;BME280;7210;51.502;10.722;2023-04-22T00:04:10;99261.41;;;8.93;84.49
14253;BME280;7210;51.502;10.722;2023-04-22T00:06:37;99258.81;;;8.75;84.93
14253;BME280;7210;51.502;10.722;2023-04-22T00:09:04;99267.50;;;8.64;85.55
14253;BME280;7210;51.502;10.722;2023-04-22T00:11:32;99273.84;;;8.57;86.01
14253;BME280;7210;51.502;10.722;2023-04-22T00:14:00;99281.84;;;8.50;86.38
14253;BME280;7210;51.502;10.722;2023-04-22T00:16:27;99281.13;;;8.43;86.68
14253;BME280;7210;51.502;10.722;2023-04-22T00:18:55;99286.22;;;8.38;87.13
14253;BME280;7210;51.502;10.722;2023-04-22T00:21:23;99282.44;;;8.34;87.80
14253;BME280;7210;51.502;10.722;2023-04-22T00:23:52;99286.81;;;8.40;88.03
14253;BME280;7210;51.502;10.722;2023-04-22T00:26:19;99287.63;;;8.41;88.25
14253;BME280;7210;51.502;10.722;2023-04-22T00:28:47;99278.91;;;8.40;88.48
14253;BME280;7210;51.502;10.722;2023-04-22T00:31:14;99281.28;;;8.48;88.55
14253;BME280;7210;51.502;10.722;2023-04-22T00:33:41;99280.59;;;8.53;88.61
14253;BME280;7210;51.502;10.722;2023-04-22T00:36:08;99283.47;;;8.51;88.82
14253;BME280;7210;51.502;10.722;2023-04-22T00:38:37;99259.22;;;8.43;88.82
14253;BME280;7210;51.502;10.722;2023-04-22T00:41:05;99248.78;;;8.36;88.83
14253;BME280;7210;51.502;10.722;2023-04-22T00:43:32;99250.84;;;8.34;89.14
14253;BME280;7210;51.502;10.722;2023-04-22T00:46:00;99257.72;;;8.35;89.05
14253;BME280;7210;51.502;10.722;2023-04-22T00:48:28;99254.41;;;8.40;89.14
14253;BME280;7210;51.502;10.722;2023-04-22T00:50:55;99261.28;;;8.41;89.49
14253;BME280;7210;51.502;10.722;2023-04-22T00:53:22;99256.03;;;8.41;89.54
14253;BME280;7210;51.502;10.722;2023-04-22T00:55:55;99250.28;;;8.44;89.18
14253;BME280;7210;51.502;10.722;2023-04-22T00:58:27;99243.44;;;8.43;89.42
14253;BME280;7210;51.502;10.722;2023-04-22T01:00:55;99249.00;;;8.53;89.37
14253;BME280;7210;51.502;10.722;2023-04-22T01:03:22;99249.94;;;8.58;89.35
14253;BME280;7210;51.502;10.722;2023-04-22T01:05:51;99239.97;;;8.60;89.09
14253;BME280;7210;51.502;10.722;2023-04-22T01:08:18;99230.00;;;8.62;89.18
14253;BME280;7210;51.502;10.722;2023-04-22T01:10:46;99232.94;;;8.72;89.13
14253;BME280;7210;51.502;10.722;2023-04-22T01:13:14;99222.28;;;8.79;88.82
14253;BME280;7210;51.502;10.722;2023-04-22T01:15:42;99224.72;;;8.80;88.67
14253;BME280;7210;51.502;10.722;2023-04-22T01:18:09;99230.88;;;8.74;88.47
14253;BME280;7210;51.502;10.722;2023-04-22T01:20:36;99223.69;;;8.63;88.72
14253;BME280;7210;51.502;10.722;2023-04-22T01:23:11;99204.72;;;8.43;88.67
14253;BME280;7210;51.502;10.722;2023-04-22T01:25:42;99195.09;;;8.19;88.50
14253;BME280;7210;51.502;10.722;2023-04-22T01:28:10;99180.75;;;7.97;88.97
14253;BME280;7210;51.502;10.722;2023-04-22T01:30:42;99208.97;;;7.90;89.45
14253;BME280;7210;51.502;10.722;2023-04-22T01:33:10;99217.72;;;7.84;89.93
14253;BME280;7210;51.502;10.722;2023-04-22T01:35:38;99214.97;;;7.79;90.05
14253;BME280;7210;51.502;10.722;2023-04-22T01:38:10;99219.25;;;7.74;90.59
14253;BME280;7210;51.502;10.722;2023-04-22T01:40:39;99222.78;;;7.68;90.80
14253;BME280;7210;51.502;10.722;2023-04-22T01:43:06;99215.56;;;7.57;90.80
14253;BME280;7210;51.502;10.722;2023-04-22T01:45:33;99215.09;;;7.42;91.00
14253;BME280;7210;51.502;10.722;2023-04-22T01:48:00;99213.00;;;7.32;90.95
14253;BME280;7210;51.502;10.722;2023-04-22T01:50:27;99229.16;;;7.29;91.61
14253;BME280;7210;51.502;10.722;2023-04-22T01:52:56;99224.34;;;7.27;91.84
14253;BME280;7210;51.502;10.722;2023-04-22T01:55:23;99225.59;;;7.24;92.00
14253;BME280;7210;51.502;10.722;2023-04-22T01:57:52;99226.81;;;7.22;92.24
14253;BME280;7210;51.502;10.722;2023-04-22T02:00:19;99223.59;;;7.20;92.34
14253;BME280;7210;51.502;10.722;2023-04-22T02:02:47;99220.78;;;7.15;92.64
14253;BME280;7210;51.502;10.722;2023-04-22T02:05:14;99208.88;;;7.12;93.00
14253;BME280;7210;51.502;10.722;2023-04-22T02:10:56;99221.22;;;7.12;93.17
14253;BME280;7210;51.502;10.722;2023-04-22T02:13:36;99231.09;;;7.16;93.71
14253;BME280;7210;51.502;10.722;2023-04-22T02:16:05;99225.66;;;7.11;93.72
14253;BME280;7210;51.502;10.722;2023-04-22T02:21:49;99201.56;;;6.90;93.64
14253;BME280;7210;51.502;10.722;2023-04-22T02:24:16;99207.66;;;6.84;93.87
14253;BME280;7210;51.502;10.722;2023-04-22T02:26:43;99203.25;;;6.78;94.59
14253;BME280;7210;51.502;10.722;2023-04-22T02:29:13;99204.13;;;6.72;94.85
14253;BME280;7210;51.502;10.722;2023-04-22T02:31:41;99200.16;;;6.63;94.57
14253;BME280;7210;51.502;10.722;2023-04-22T02:34:09;99193.75;;;6.52;94.81
14253;BME280;7210;51.502;10.722;2023-04-22T02:36:36;99199.78;;;6.53;95.37
14253;BME280;7210;51.502;10.722;2023-04-22T02:39:05;99211.47;;;6.57;95.62
14253;BME280;7210;51.502;10.722;2023-04-22T02:41:34;99205.78;;;6.60;96.47
14253;BME280;7210;51.502;10.722;2023-04-22T02:44:02;99218.69;;;6.68;96.48
14253;BME280;7210;51.502;10.722;2023-04-22T02:46:31;99221.66;;;6.78;96.88
14253;BME280;7210;51.502;10.722;2023-04-22T02:48:58;99222.59;;;6.90;97.28
14253;BME280;7210;51.502;10.722;2023-04-22T02:51:26;99217.66;;;7.00;97.11
14253;BME280;7210;51.502;10.722;2023-04-22T02:53:53;99212.59;;;7.05;96.95
14253;BME280;7210;51.502;10.722;2023-04-22T02:56:20;99204.25;;;7.08;96.99
14253;BME280;7210;51.502;10.722;2023-04-22T02:58:48;99201.88;;;7.06;96.80
14253;BME280;7210;51.502;10.722;2023-04-22T03:01:15;99193.00;;;7.01;96.75
14253;BME280;7210;51.502;10.722;2023-04-22T03:03:44;99191.00;;;6.96;97.13
14253;BME280;7210;51.502;10.722;2023-04-22T03:06:17;99191.81;;;6.97;97.20
14253;BME280;7210;51.502;10.722;2023-04-22T03:08:44;99193.88;;;6.95;97.28
14253;BME280;7210;51.502;10.722;2023-04-22T03:11:11;99184.41;;;6.87;97.33
14253;BME280;7210;51.502;10.722;2023-04-22T03:13:38;99177.44;;;6.75;97.09
14253;BME280;7210;51.502;10.722;2023-04-22T03:16:06;99163.78;;;6.60;96.65
14253;BME280;7210;51.502;10.722;2023-04-22T03:18:33;99161.41;;;6.52;96.61
14253;BME280;7210;51.502;10.722;2023-04-22T03:21:02;99164.66;;;6.47;97.10
14253;BME280;7210;51.502;10.722;2023-04-22T03:23:30;99160.25;;;6.41;97.26
14253;BME280;7210;51.502;10.722;2023-04-22T03:25:59;99158.09;;;6.32;97.16
14253;BME280;7210;51.502;10.722;2023-04-22T03:28:27;99156.69;;;6.29;97.13
14253;BME280;7210;51.502;10.722;2023-04-22T03:30:54;99153.88;;;6.24;97.20
14253;BME280;7210;51.502;10.722;2023-04-22T03:33:22;99155.53;;;6.19;97.62
14253;BME280;7210;51.502;10.722;2023-04-22T03:35:57;99168.03;;;6.23;97.97
14253;BME280;7210;51.502;10.722;2023-04-22T03:38:25;99169.19;;;6.27;98.06
14253;BME280;7210;51.502;10.722;2023-04-22T03:40:53;99171.63;;;6.29;98.41
14253;BME280;7210;51.502;10.722;2023-04-22T03:43:33;99175.47;;;6.33;98.64
14253;BME280;7210;51.502;10.722;2023-04-22T03:46:06;99176.06;;;6.35;99.25
14253;BME280;7210;51.502;10.722;2023-04-22T03:48:35;99168.75;;;6.37;99.21
14253;BME280;7210;51.502;10.722;2023-04-22T03:51:08;99173.63;;;6.40;99.71
14253;BME280;7210;51.502;10.722;2023-04-22T03:53:38;99176.63;;;6.43;99.82
14253;BME280;7210;51.502;10.722;2023-04-22T03:56:06;99174.72;;;6.50;100.00
14253;BME280;7210;51.502;10.722;2023-04-22T03:58:37;99176.91;;;6.60;100.00
14253;BME280;7210;51.502;10.722;2023-04-22T04:01:07;99179.28;;;6.68;100.00
14253;BME280;7210;51.502;10.722;2023-04-22T04:03:35;99186.91;;;6.76;100.00
14253;BME280;7210;51.502;10.722;2023-04-22T04:06:03;99172.94;;;6.82;100.00
14253;BME280;7210;51.502;10.722;2023-04-22T04:08:31;99172.94;;;6.82;100.00
14253;BME280;7210;51.502;10.722;2023-04-22T04:11:00;99167.09;;;6.80;100.00
14253;BME280;7210;51.502;10.722;2023-04-22T04:13:28;99162.88;;;6.79;100.00
14253;BME280;7210;51.502;10.722;2023-04-22T04:16:35;99156.31;;;6.88;100.00
14253;BME280;7210;51.502;10.722;2023-04-22T04:19:10;99159.09;;;6.93;100.00
14253;BME280;7210;51.502;10.722;2023-04-22T04:21:38;99161.09;;;6.97;100.00
14253;BME280;7210;51.502;10.722;2023-04-22T04:24:06;99160.22;;;7.03;100.00
14253;BME280;7210;51.502;10.722;2023-04-22T04:26:41;99148.94;;;7.03;100.00
14253;BME280;7210;51.502;10.722;2023-04-22T04:29:14;99143.06;;;7.01;100.00
14253;BME280;7210;51.502;10.722;2023-04-22T04:31:50;99141.84;;;7.03;100.00
14253;BME280;7210;51.502;10.722;2023-04-22T04:34:17;99153.91;;;7.11;100.00
14253;BME280;7210;51.502;10.722;2023-04-22T04:36:45;99154.44;;;7.19;100.00
14253;BME280;7210;51.502;10.722;2023-04-22T04:39:19;99161.25;;;7.27;100.00
14253;BME280;7210;51.502;10.722;2023-04-22T04:41:48;99166.81;;;7.36;100.00
14253;BME280;7210;51.502;10.722;2023-04-22T04:44:20;99164.34;;;7.41;100.00
14253;BME280;7210;51.502;10.722;2023-04-22T04:46:48;99161.84;;;7.46;100.00
14253;BME280;7210;51.502;10.722;2023-04-22T04:49:17;99157.78;;;7.50;100.00
14253;BME280;7210;51.502;10.722;2023-04-22T04:51:57;99162.75;;;7.58;100.00
14253;BME280;7210;51.502;10.722;2023-04-22T04:54:26;99158.03;;;7.67;100.00
14253;BME280;7210;51.502;10.722;2023-04-22T04:57:13;99171.25;;;7.78;100.00
14253;BME280;7210;51.502;10.722;2023-04-22T04:59:41;99168.34;;;7.86;100.00
14253;BME280;7210;51.502;10.722;2023-04-22T05:02:09;99163.78;;;7.93;100.00
14253;BME280;7210;51.502;10.722;2023-04-22T05:04:36;99165.53;;;7.99;100.00
14253;BME280;7210;51.502;10.722;2023-04-22T05:07:04;99176.00;;;8.06;100.00
14253;BME280;7210;51.502;10.722;2023-04-22T05:09:32;99180.38;;;8.12;100.00
14253;BME280;7210;51.502;10.722;2023-04-22T05:12:02;99191.44;;;8.20;100.00
14253;BME280;7210;51.502;10.722;2023-04-22T05:14:31;99185.31;;;8.26;100.00
14253;BME280;7210;51.502;10.722;2023-04-22T05:16:58;99186.59;;;8.35;100.00
14253;BME280;7210;51.502;10.722;2023-04-22T05:19:25;99182.25;;;8.41;100.00
14253;BME280;7210;51.502;10.722;2023-04-22T05:21:54;99195.94;;;8.49;100.00
14253;BME280;7210;51.502;10.722;2023-04-22T05:24:21;99190.94;;;8.59;100.00
14253;BME280;7210;51.502;10.722;2023-04-22T05:26:49;99194.84;;;8.68;100.00
14253;BME280;7210;51.502;10.722;2023-04-22T05:29:18;99198.34;;;8.80;100.00
14253;BME280;7210;51.502;10.722;2023-04-22T05:31:47;99203.41;;;8.93;100.00
14253;BME280;7210;51.502;10.722;2023-04-22T05:34:15;99191.50;;;9.02;100.00
14253;BME280;7210;51.502;10.722;2023-04-22T05:36:42;99187.75;;;9.10;100.00
14253;BME280;7210;51.502;10.722;2023-04-22T05:39:09;99187.19;;;9.19;100.00
14253;BME280;7210;51.502;10.722;2023-04-22T05:41:37;99169.53;;;9.31;99.40
14253;BME280;7210;51.502;10.722;2023-04-22T05:44:08;99167.72;;;9.43;98.70
14253;BME280;7210;51.502;10.722;2023-04-22T05:46:37;99165.28;;;9.53;98.20
14253;BME280;7210;51.502;10.722;2023-04-22T05:49:06;99170.22;;;9.61;97.56
14253;BME280;7210;51.502;10.722;2023-04-22T05:51:57;99165.75;;;9.73;97.01
14253;BME280;7210;51.502;10.722;2023-04-22T05:54:30;99151.16;;;9.82;96.45
14253;BME280;7210;51.502;10.722;2023-04-22T05:56:57;99147.00;;;9.86;95.59
14253;BME280;7210;51.502;10.722;2023-04-22T05:59:25;99144.09;;;9.99;95.18
14253;BME280;7210;51.502;10.722;2023-04-22T06:01:54;99142.72;;;10.08;94.85
14253;BME280;7210;51.502;10.722;2023-04-22T06:04:23;99131.13;;;10.09;94.30
14253;BME280;7210;51.502;10.722;2023-04-22T06:06:50;99126.19;;;10.13;93.59
14253;BME280;7210;51.502;10.722;2023-04-22T06:09:19;99128.13;;;10.17;93.07
14253;BME280;7210;51.502;10.722;2023-04-22T06:11:47;99128.78;;;10.24;92.78
14253;BME280;7210;51.502;10.722;2023-04-22T06:14:14;99138.03;;;10.38;92.56
14253;BME280;7210;51.502;10.722;2023-04-22T06:16:43;99154.97;;;10.54;92.13
14253;BME280;7210;51.502;10.722;2023-04-22T06:19:10;99145.84;;;10.61;91.51
14253;BME280;7210;51.502;10.722;2023-04-22T06:21:39;99153.72;;;10.73;90.97
14253;BME280;7210;51.502;10.722;2023-04-22T06:24:07;99157.34;;;10.83;90.40
14253;BME280;7210;51.502;10.722;2023-04-22T06:26:35;99156.97;;;10.91;89.91
14253;BME280;7210;51.502;10.722;2023-04-22T06:29:03;99154.88;;;10.93;89.31
14253;BME280;7210;51.502;10.722;2023-04-22T06:31:32;99160.31;;;11.03;88.99
14253;BME280;7210;51.502;10.722;2023-04-22T06:33:59;99145.75;;;11.01;88.55
14253;BME280;7210;51.502;10.722;2023-04-22T06:36:27;99148.47;;;11.06;88.10
14253;BME280;7210;51.502;10.722;2023-04-22T06:39:01;99150.88;;;11.07;87.55
14253;BME280;7210;51.502;10.722;2023-04-22T06:41:40;99162.56;;;11.11;87.53
14253;BME280;7210;51.502;10.722;2023-04-22T06:44:24;99191.78;;;11.32;87.27
14253;BME280;7210;51.502;10.722;2023-04-22T06:47:10;99171.38;;;11.33;86.67
14253;BME280;7210;51.502;10.722;2023-04-22T06:49:45;99181.34;;;11.42;86.52
14253;BME280;7210;51.502;10.722;2023-04-22T06:52:19;99186.44;;;11.49;86.33
14253;BME280;7210;51.502;10.722;2023-04-22T06:54:48;99202.59;;;11.64;86.12
14253;BME280;7210;51.502;10.722;2023-04-22T06:57:15;99181.97;;;11.66;85.46
14253;BME280;7210;51.502;10.722;2023-04-22T06:59:43;99187.88;;;11.73;84.79
14253;BME280;7210;51.502;10.722;2023-04-22T07:02:10;99201.03;;;11.84;84.32
14253;BME280;7210;51.502;10.722;2023-04-22T07:04:38;99198.69;;;11.88;84.02
14253;BME280;7210;51.502;10.722;2023-04-22T07:07:06;99213.94;;;11.97;84.04
14253;BME280;7210;51.502;10.722;2023-04-22T07:09:34;99229.22;;;12.12;83.70
14253;BME280;7210;51.502;10.722;2023-04-22T07:12:03;99223.75;;;12.18;83.29
14253;BME280;7210;51.502;10.722;2023-04-22T07:14:31;99235.28;;;12.29;82.99
14253;BME280;7210;51.502;10.722;2023-04-22T07:16:58;99250.03;;;12.41;82.74
14253;BME280;7210;51.502;10.722;2023-04-22T07:19:26;99270.13;;;12.59;82.41
14253;BME280;7210;51.502;10.722;2023-04-22T07:21:53;99268.69;;;12.73;81.82
14253;BME280;7210;51.502;10.722;2023-04-22T07:24:20;99270.44;;;12.84;81.27
14253;BME280;7210;51.502;10.722;2023-04-22T07:26:48;99271.69;;;12.98;80.83
14253;BME280;7210;51.502;10.722;2023-04-22T07:29:16;99278.16;;;13.12;80.18
14253;BME280;7210;51.502;10.722;2023-04-22T07:31:44;99272.22;;;13.26;79.73
14253;BME280;7210;51.502;10.722;2023-04-22T07:34:11;99281.03;;;13.32;79.42
14253;BME280;7210;51.502;10.722;2023-04-22T07:36:39;99282.16;;;13.41;78.55
14253;BME280;7210;51.502;10.722;2023-04-22T07:39:06;99288.13;;;13.53;78.25
14253;BME280;7210;51.502;10.722;2023-04-22T07:41:34;99271.09;;;13.49;77.92
14253;BME280;7210;51.502;10.722;2023-04-22T07:44:01;99288.13;;;13.53;77.61
14253;BME280;7210;51.502;10.722;2023-04-22T07:46:30;99308.34;;;13.59;77.40
14253;BME280;7210;51.502;10.722;2023-04-22T07:48:57;99323.34;;;13.70;77.38
14253;BME280;7210;51.502;10.722;2023-04-22T07:51:24;99330.84;;;13.78;77.05
14253;BME280;7210;51.502;10.722;2023-04-22T07:53:51;99324.53;;;13.84;76.78
14253;BME280;7210;51.502;10.722;2023-04-22T07:56:18;99344.84;;;14.00;76.55
14253;BME280;7210;51.502;10.722;2023-04-22T07:58:46;99362.22;;;14.12;76.50
14253;BME280;7210;51.502;10.722;2023-04-22T08:01:13;99348.63;;;14.09;76.31
14253;BME280;7210;51.502;10.722;2023-04-22T08:03:41;99362.66;;;14.31;75.77
14253;BME280;7210;51.502;10.722;2023-04-22T08:06:08;99366.91;;;14.37;75.56
14253;BME280;7210;51.502;10.722;2023-04-22T08:08:35;99360.38;;;14.49;75.00
14253;BME280;7210;51.502;10.722;2023-04-22T08:11:03;99365.44;;;14.56;74.82
14253;BME280;7210;51.502;10.722;2023-04-22T08:13:30;99393.72;;;14.67;74.81
14253;BME280;7210;51.502;10.722;2023-04-22T08:15:58;99413.53;;;14.86;74.86
14253;BME280;7210;51.502;10.722;2023-04-22T08:18:27;99415.69;;;14.94;74.62
14253;BME280;7210;51.502;10.722;2023-04-22T08:20:56;99404.03;;;15.00;74.31
14253;BME280;7210;51.502;10.722;2023-04-22T08:23:23;99412.81;;;15.05;73.98
14253;BME280;7210;51.502;10.722;2023-04-22T08:25:51;99403.03;;;15.20;73.24
14253;BME280;7210;51.502;10.722;2023-04-22T08:28:18;99394.59;;;15.38;72.42
14253;BME280;7210;51.502;10.722;2023-04-22T08:30:45;99415.97;;;15.53;72.16
14253;BME280;7210;51.502;10.722;2023-04-22T08:33:12;99406.38;;;15.67;71.53
14253;BME280;7210;51.502;10.722;2023-04-22T08:35:40;99416.25;;;15.72;71.55
14253;BME280;7210;51.502;10.722;2023-04-22T08:38:08;99430.66;;;15.76;71.74
14253;BME280;7210;51.502;10.722;2023-04-22T08:40:39;99434.13;;;15.81;71.69
14253;BME280;7210;51.502;10.722;2023-04-22T08:43:06;99415.44;;;15.76;71.19
14253;BME280;7210;51.502;10.722;2023-04-22T08:45:36;99444.56;;;15.98;71.28
14253;BME280;7210;51.502;10.722;2023-04-22T08:48:07;99438.97;;;16.04;71.16
14253;BME280;7210;51.502;10.722;2023-04-22T08:50:36;99434.72;;;16.08;70.99
14253;BME280;7210;51.502;10.722;2023-04-22T08:53:05;99447.78;;;16.20;70.69
14253;BME280;7210;51.502;10.722;2023-04-22T08:55:34;99435.25;;;16.25;70.36
14253;BME280;7210;51.502;10.722;2023-04-22T08:58:03;99434.47;;;16.35;69.73
14253;BME280;7210;51.502;10.722;2023-04-22T09:00:32;99435.53;;;16.54;69.41
14253;BME280;7210;51.502;10.722;2023-04-22T09:03:01;99452.06;;;16.66;69.52
14253;BME280;7210;51.502;10.722;2023-04-22T09:05:32;99441.91;;;16.73;69.19
14253;BME280;7210;51.502;10.722;2023-04-22T09:08:01;99474.72;;;16.83;69.50
14253;BME280;7210;51.502;10.722;2023-04-22T09:10:30;99470.97;;;16.94;69.40
14253;BME280;7210;51.502;10.722;2023-04-22T09:13:00;99476.81;;;17.11;68.87
14253;BME280;7210;51.502;10.722;2023-04-22T09:15:29;99466.34;;;17.25;68.52
14253;BME280;7210;51.502;10.722;2023-04-22T09:17:56;99479.13;;;17.33;68.58
14253;BME280;7210;51.502;10.722;2023-04-22T09:20:26;99467.09;;;17.45;67.98
14253;BME280;7210;51.502;10.722;2023-04-22T09:22:56;99447.81;;;17.53;67.31
14253;BME280;7210;51.502;10.722;2023-04-22T09:25:27;99435.16;;;17.69;66.57
14253;BME280;7210;51.502;10.722;2023-04-22T09:27:57;99453.56;;;17.75;66.80
14253;BME280;7210;51.502;10.722;2023-04-22T09:30:27;99472.78;;;17.82;66.91
14253;BME280;7210;51.502;10.722;2023-04-22T09:32:57;99471.63;;;17.93;66.45
14253;BME280;7210;51.502;10.722;2023-04-22T09:35:30;99450.63;;;18.15;65.38
14253;BME280;7210;51.502;10.722;2023-04-22T09:37:59;99456.72;;;18.26;65.28
14253;BME280;7210;51.502;10.722;2023-04-22T09:40:28;99451.28;;;18.36;65.06
14253;BME280;7210;51.502;10.722;2023-04-22T09:42:59;99485.19;;;18.50;65.49
14253;BME280;7210;51.502;10.722;2023-04-22T09:45:31;99455.59;;;18.65;64.05
14253;BME280;7210;51.502;10.722;2023-04-22T09:48:02;99429.28;;;18.72;63.43
14253;BME280;7210;51.502;10.722;2023-04-22T09:50:30;99491.88;;;18.81;64.74
14253;BME280;7210;51.502;10.722;2023-04-22T09:53:00;99483.13;;;18.99;64.29
14253;BME280;7210;51.502;10.722;2023-04-22T09:55:32;99494.78;;;19.13;63.94
14253;BME280;7210;51.502;10.722;2023-04-22T09:58:07;99488.84;;;19.16;63.73
14253;BME280;7210;51.502;10.722;2023-04-22T10:00:41;99472.91;;;19.30;63.12
14253;BME280;7210;51.502;10.722;2023-04-22T10:03:09;99502.78;;;19.42;63.28
14253;BME280;7210;51.502;10.722;2023-04-22T10:05:37;99541.63;;;19.49;64.07
14253;BME280;7210;51.502;10.722;2023-04-22T10:08:06;99546.03;;;19.58;64.24
14253;BME280;7210;51.502;10.722;2023-04-22T10:10:34;99538.63;;;19.74;63.80
14253;BME280;7210;51.502;10.722;2023-04-22T10:13:02;99507.38;;;19.83;62.81
14253;BME280;7210;51.502;10.722;2023-04-22T10:15:32;99543.94;;;19.97;63.23
14253;BME280;7210;51.502;10.722;2023-04-22T10:18:05;99485.50;;;20.13;61.98
14253;BME280;7210;51.502;10.722;2023-04-22T10:20:35;99479.69;;;20.24;61.57
14253;BME280;7210;51.502;10.722;2023-04-22T10:23:04;99452.28;;;20.41;60.78
14253;BME280;7210;51.502;10.722;2023-04-22T10:25:32;99454.34;;;20.62;60.21
14253;BME280;7210;51.502;10.722;2023-04-22T10:28:02;99499.38;;;20.84;60.41
14253;BME280;7210;51.502;10.722;2023-04-22T10:30:33;99465.88;;;20.95;59.81
14253;BME280;7210;51.502;10.722;2023-04-22T10:33:41;99356.44;;;21.09;56.94
14253;BME280;7210;51.502;10.722;2023-04-22T10:36:14;99386.19;;;21.26;56.86
14253;BME280;7210;51.502;10.722;2023-04-22T10:39:15;99402.31;;;21.26;57.15
14253;BME280;7210;51.502;10.722;2023-04-22T10:41:52;99363.91;;;21.25;56.50
14253;BME280;7210;51.502;10.722;2023-04-22T10:44:20;99371.53;;;21.32;55.96
14253;BME280;7210;51.502;10.722;2023-04-22T10:46:59;99417.38;;;21.40;56.55
14253;BME280;7210;51.502;10.722;2023-04-22T10:49:29;99430.13;;;21.48;56.74
14253;BME280;7210;51.502;10.722;2023-04-22T10:51:59;99419.03;;;21.63;56.45
14253;BME280;7210;51.502;10.722;2023-04-22T10:54:58;99381.03;;;21.78;55.13
14253;BME280;7210;51.502;10.722;2023-04-22T10:57:32;99333.09;;;21.89;53.72
14253;BME280;7210;51.502;10.722;2023-04-22T11:00:28;99349.41;;;22.06;53.37
14253;BME280;7210;51.502;10.722;2023-04-22T11:03:12;99264.88;;;22.24;51.13
14253;BME280;7210;51.502;10.722;2023-04-22T11:05:41;99301.75;;;22.45;51.11
14253;BME280;7210;51.502;10.722;2023-04-22T11:08:17;99312.47;;;22.67;50.82
14253;BME280;7210;51.502;10.722;2023-04-22T11:10:48;99226.66;;;22.69;49.67
14253;BME280;7210;51.502;10.722;2023-04-22T11:13:18;99152.78;;;22.62;48.53
14253;BME280;7210;51.502;10.722;2023-04-22T11:15:48;99172.28;;;22.67;48.44
14253;BME280;7210;51.502;10.722;2023-04-22T11:18:20;99165.34;;;22.75;48.25
14253;BME280;7210;51.502;10.722;2023-04-22T11:20:50;99249.75;;;23.01;48.65
14253;BME280;7210;51.502;10.722;2023-04-22T11:23:23;99373.75;;;23.23;50.51
14253;BME280;7210;51.502;10.722;2023-04-22T11:25:55;99355.34;;;23.25;50.44
14253;BME280;7210;51.502;10.722;2023-04-22T11:28:23;99382.97;;;23.22;51.14
14253;BME280;7210;51.502;10.722;2023-04-22T11:30:52;99374.00;;;23.13;51.27
14253;BME280;7210;51.502;10.722;2023-04-22T11:33:19;99358.09;;;23.03;51.50
14253;BME280;7210;51.502;10.722;2023-04-22T11:35:49;99329.56;;;23.02;51.21
14253;BME280;7210;51.502;10.722;2023-04-22T11:38:17;99343.22;;;23.14;50.82
14253;BME280;7210;51.502;10.722;2023-04-22T11:40:44;99360.75;;;23.25;51.01
14253;BME280;7210;51.502;10.722;2023-04-22T11:43:17;99223.13;;;23.33;48.73
14253;BME280;7210;51.502;10.722;2023-04-22T11:45:44;99241.69;;;23.35;49.41
14253;BME280;7210;51.502;10.722;2023-04-22T11:48:13;99246.13;;;23.31;49.61
14253;BME280;7210;51.502;10.722;2023-04-22T11:50:47;99196.75;;;23.39;48.34
14253;BME280;7210;51.502;10.722;2023-04-22T11:53:18;99082.97;;;23.20;46.86
14253;BME280;7210;51.502;10.722;2023-04-22T11:55:48;99046.59;;;23.34;45.57
14253;BME280;7210;51.502;10.722;2023-04-22T11:58:19;99064.28;;;23.61;44.94
14253;BME280;7210;51.502;10.722;2023-04-22T12:00:51;99175.03;;;23.89;46.57
14253;BME280;7210;51.502;10.722;2023-04-22T12:03:21;99153.66;;;24.13;45.61
14253;BME280;7210;51.502;10.722;2023-04-22T12:05:53;99163.75;;;24.25;45.69
14253;BME280;7210;51.502;10.722;2023-04-22T12:08:24;99128.56;;;24.33;44.69
14253;BME280;7210;51.502;10.722;2023-04-22T12:10:54;99068.44;;;24.36;43.53
14253;BME280;7210;51.502;10.722;2023-04-22T12:13:23;98977.88;;;24.30;42.24
14253;BME280;7210;51.502;10.722;2023-04-22T12:15:55;99046.31;;;24.43;43.13
14253;BME280;7210;51.502;10.722;2023-04-22T12:18:29;99207.34;;;24.52;45.63
14253;BME280;7210;51.502;10.722;2023-04-22T12:20:59;99189.53;;;24.51;45.04
14253;BME280;7210;51.502;10.722;2023-04-22T12:23:28;99133.53;;;24.60;43.87
14253;BME280;7210;51.502;10.722;2023-04-22T12:25:56;99042.34;;;24.61;42.88
14253;BME280;7210;51.502;10.722;2023-04-22T12:28:23;99044.84;;;24.45;43.48
14253;BME280;7210;51.502;10.722;2023-04-22T12:30:53;99042.34;;;24.40;43.61
14253;BME280;7210;51.502;10.722;2023-04-22T12:33:20;99127.00;;;24.53;44.76
14253;BME280;7210;51.502;10.722;2023-04-22T12:35:47;99140.38;;;24.49;44.98
14253;BME280;7210;51.502;10.722;2023-04-22T12:38:17;98984.84;;;24.31;42.78
14253;BME280;7210;51.502;10.722;2023-04-22T12:40:46;99102.16;;;24.59;43.81
14253;BME280;7210;51.502;10.722;2023-04-22T12:43:13;99098.69;;;24.79;42.86
14253;BME280;7210;51.502;10.722;2023-04-22T12:45:40;99150.47;;;24.90;43.70
14253;BME280;7210;51.502;10.722;2023-04-22T12:48:07;99090.09;;;24.77;43.72
14253;BME280;7210;51.502;10.722;2023-04-22T12:50:34;99115.03;;;24.83;43.84
14253;BME280;7210;51.502;10.722;2023-04-22T12:53:02;98945.97;;;24.89;41.10
14253;BME280;7210;51.502;10.722;2023-04-22T12:55:29;98969.97;;;24.90;41.23
14253;BME280;7210;51.502;10.722;2023-04-22T12:57:58;99019.84;;;25.01;41.96
14253;BME280;7210;51.502;10.722;2023-04-22T13:00:25;98910.25;;;24.95;40.22
14253;BME280;7210;51.502;10.722;2023-04-22T13:02:52;98995.13;;;25.23;40.41
14253;BME280;7210;51.502;10.722;2023-04-22T13:05:19;98965.44;;;25.39;39.77
14253;BME280;7210;51.502;10.722;2023-04-22T13:07:47;98994.22;;;25.43;40.64
14253;BME280;7210;51.502;10.722;2023-04-22T13:10:15;99142.66;;;25.86;41.63
14253;BME280;7210;51.502;10.722;2023-04-22T13:12:43;99090.19;;;25.90;41.21
14253;BME280;7210;51.502;10.722;2023-04-22T13:15:11;99030.13;;;25.88;40.47
14253;BME280;7210;51.502;10.722;2023-04-22T13:17:39;98963.72;;;25.58;39.92
14253;BME280;7210;51.502;10.722;2023-04-22T13:20:07;98917.47;;;25.63;39.31
14253;BME280;7210;51.502;10.722;2023-04-22T13:22:37;98997.38;;;25.69;40.52